createdAt,value
2018-04-22T00:02:05.445Z,10.47
2018-04-22T00:04:32.900Z,9.50
2018-04-22T00:07:00.369Z,11.83
2018-04-22T00:09:27.852Z,10.60
2018-04-22T00:11:55.312Z,10.20
2018-04-22T00:14:22.775Z,10.27
2018-04-22T00:16:51.008Z,14.27
2018-04-22T00:19:18.465Z,11.90
2018-04-22T00:21:45.935Z,16.03
2018-04-22T00:24:13.405Z,13.07
2018-04-22T00:26:40.868Z,10.53
2018-04-22T00:29:08.331Z,11.03
2018-04-22T00:31:37.101Z,8.63
2018-04-22T00:34:05.334Z,15.77
2018-04-22T00:36:32.801Z,12.73
2018-04-22T00:39:00.276Z,11.63
2018-04-22T00:41:27.768Z,11.87
2018-04-22T00:43:55.986Z,9.03
2018-04-22T00:46:23.457Z,15.33
2018-04-22T00:48:50.911Z,12.60
2018-04-22T00:51:18.392Z,11.83
2018-04-22T00:53:57.793Z,11.80
2018-04-22T00:56:25.253Z,9.90
2018-04-22T00:58:52.728Z,13.70
2018-04-22T01:01:20.188Z,13.00
2018-04-22T01:03:47.660Z,12.93
2018-04-22T01:06:15.116Z,12.30
2018-04-22T01:08:42.581Z,13.40
2018-04-22T01:11:10.037Z,13.33
2018-04-22T01:13:37.518Z,13.90
2018-04-22T01:16:06.488Z,10.20
2018-04-22T01:18:33.952Z,14.77
2018-04-22T01:21:01.396Z,11.23
2018-04-22T01:23:28.872Z,14.20
2018-04-22T01:25:57.107Z,12.07
2018-04-22T01:28:24.586Z,11.37
2018-04-22T01:30:52.052Z,11.70
2018-04-22T01:33:19.508Z,12.30
2018-04-22T01:35:46.974Z,12.37
2018-04-22T01:38:15.200Z,14.57
2018-04-22T01:40:42.660Z,18.73
2018-04-22T01:43:10.128Z,10.83
2018-04-22T01:45:37.609Z,10.57
2018-04-22T01:48:05.068Z,15.70
2018-04-22T01:50:32.527Z,12.40
2018-04-22T01:53:00.759Z,13.57
2018-04-22T01:55:28.208Z,11.53
2018-04-22T01:57:55.676Z,10.20
2018-04-22T02:00:23.128Z,11.83
2018-04-22T02:02:50.605Z,12.40
2018-04-22T02:05:18.073Z,11.97
2018-04-22T02:07:45.536Z,14.10
2018-04-22T02:10:13.011Z,12.87
2018-04-22T02:12:41.254Z,15.20
2018-04-22T02:15:08.715Z,12.23
2018-04-22T02:17:36.183Z,13.60
2018-04-22T02:20:03.649Z,16.67
2018-04-22T02:22:31.972Z,16.30
2018-04-22T02:24:59.447Z,15.23
2018-04-22T02:27:26.903Z,18.10
2018-04-22T02:29:54.364Z,12.07
2018-04-22T02:32:21.833Z,15.23
2018-04-22T02:34:49.304Z,17.03
2018-04-22T02:37:17.542Z,14.90
2018-04-22T02:39:45.225Z,14.13
2018-04-22T02:42:12.684Z,15.93
2018-04-22T02:44:40.145Z,13.80
2018-04-22T02:47:07.609Z,14.47
2018-04-22T02:49:35.068Z,21.90
2018-04-22T02:52:03.289Z,14.13
2018-04-22T02:54:30.750Z,23.10
2018-04-22T02:56:58.212Z,14.60
2018-04-22T02:59:25.668Z,14.70
2018-04-22T03:01:53.144Z,19.87
2018-04-22T03:04:20.598Z,11.57
2018-04-22T03:06:48.064Z,17.87
2018-04-22T03:09:15.522Z,15.93
2018-04-22T03:11:43.001Z,14.40
2018-04-22T03:14:11.217Z,19.60
2018-04-22T03:16:38.685Z,14.83
2018-04-22T03:19:06.921Z,16.73
2018-04-22T03:21:34.395Z,15.83
2018-04-22T03:24:01.856Z,29.10
2018-04-22T03:26:29.332Z,14.90
2018-04-22T03:28:56.812Z,16.83
2018-04-22T03:31:24.288Z,15.97
2018-04-22T03:33:52.525Z,21.33
2018-04-22T03:36:20.773Z,21.07
2018-04-22T03:38:48.233Z,15.27
2018-04-22T03:41:15.700Z,19.90
2018-04-22T03:43:43.165Z,15.90
2018-04-22T03:46:10.632Z,17.87
2018-04-22T03:48:38.093Z,16.50
2018-04-22T03:51:06.253Z,17.23
2018-04-22T03:53:33.719Z,22.20
2018-04-22T03:56:01.192Z,20.40
2018-04-22T04:01:02.724Z,16.73
2018-04-22T04:03:30.184Z,20.63
2018-04-22T04:05:57.658Z,19.20
2018-04-22T04:08:25.115Z,18.30
2018-04-22T04:10:52.588Z,23.00
2018-04-22T04:13:20.067Z,19.27
2018-04-22T04:15:48.285Z,14.87
2018-04-22T04:21:40.405Z,20.00
2018-04-22T04:24:29.358Z,25.20
2018-04-22T04:27:22.089Z,17.40
2018-04-22T04:29:49.558Z,17.80
2018-04-22T04:32:17.793Z,18.70
2018-04-22T04:34:45.244Z,15.80
2018-04-22T04:37:12.717Z,23.73
2018-04-22T04:39:40.180Z,17.47
2018-04-22T04:42:07.647Z,18.50
2018-04-22T04:44:35.205Z,21.43
2018-04-22T04:47:02.660Z,16.60
2018-04-22T04:49:30.147Z,15.93
2018-04-22T04:51:58.364Z,16.87
2018-04-22T04:54:25.853Z,16.80
2018-04-22T04:56:53.310Z,18.60
2018-04-22T04:59:20.767Z,20.70
2018-04-22T05:01:48.244Z,22.90
2018-04-22T05:04:17.478Z,19.70
2018-04-22T05:06:45.485Z,14.77
2018-04-22T05:09:12.969Z,20.30
2018-04-22T05:11:41.188Z,18.23
2018-04-22T05:14:08.653Z,26.60
2018-04-22T05:16:36.478Z,20.80
2018-04-22T05:19:03.936Z,15.33
2018-04-22T05:21:31.409Z,15.60
2018-04-22T05:23:58.963Z,18.70
2018-04-22T05:26:26.404Z,19.90
2018-04-22T05:28:53.883Z,15.70
2018-04-22T05:31:21.344Z,19.43
2018-04-22T05:33:48.809Z,18.80
2018-04-22T05:36:16.276Z,18.40
2018-04-22T05:38:43.728Z,18.73
2018-04-22T05:41:11.205Z,19.53
2018-04-22T05:43:38.664Z,17.63
2018-04-22T05:46:06.137Z,16.53
2018-04-22T05:48:34.375Z,18.67
2018-04-22T05:51:01.848Z,24.50
2018-04-22T05:53:29.370Z,18.73
2018-04-22T05:55:56.835Z,16.70
2018-04-22T05:58:24.308Z,15.53
2018-04-22T06:00:51.765Z,24.00
2018-04-22T06:03:19.215Z,17.63
2018-04-22T06:05:46.684Z,18.20
2018-04-22T06:08:14.163Z,22.73
2018-04-22T06:10:41.623Z,18.57
2018-04-22T06:13:09.866Z,19.40
2018-04-22T06:15:37.341Z,15.90
2018-04-22T06:18:04.828Z,17.50
2018-04-22T06:20:33.087Z,16.57
2018-04-22T06:23:00.578Z,20.30
2018-04-22T06:25:28.029Z,16.80
2018-04-22T06:27:55.594Z,18.30
2018-04-22T06:30:23.216Z,14.00
2018-04-22T06:32:50.719Z,15.93
2018-04-22T06:35:18.194Z,20.03
2018-04-22T06:37:45.659Z,18.33
2018-04-22T06:40:13.239Z,17.27
2018-04-22T06:42:40.706Z,24.43
2018-04-22T06:45:08.951Z,16.70
2018-04-22T06:47:36.499Z,14.47
2018-04-22T06:50:04.063Z,21.90
2018-04-22T06:52:31.520Z,20.23
2018-04-22T06:54:58.996Z,17.43
2018-04-22T06:57:27.233Z,17.63
2018-04-22T06:59:54.709Z,19.40
2018-04-22T07:02:22.177Z,25.90
2018-04-22T07:04:49.644Z,20.33
2018-04-22T07:07:17.110Z,19.67
2018-04-22T07:09:45.192Z,17.83
2018-04-22T07:12:13.426Z,21.83
2018-04-22T07:14:40.890Z,18.87
2018-04-22T07:17:08.358Z,21.07
2018-04-22T07:19:35.832Z,25.70
2018-04-22T07:22:04.069Z,22.30
2018-04-22T07:24:31.538Z,20.57
2018-04-22T07:26:59.006Z,23.03
2018-04-22T07:29:26.473Z,21.27
2018-04-22T07:31:53.945Z,24.63
2018-04-22T07:34:22.176Z,26.47
2018-04-22T07:36:49.653Z,29.73
2018-04-22T07:39:17.112Z,33.70
2018-04-22T07:41:45.575Z,29.67
2018-04-22T07:44:13.048Z,26.37
2018-04-22T07:46:40.520Z,30.13
2018-04-22T07:49:08.758Z,30.20
2018-04-22T07:51:36.222Z,30.57
2018-04-22T07:54:03.691Z,27.70
2018-04-22T07:56:31.164Z,27.80
2018-04-22T07:58:58.630Z,25.70
2018-04-22T08:01:26.865Z,29.10
2018-04-22T08:03:54.340Z,28.67
2018-04-22T08:06:21.804Z,30.33
2018-04-22T08:08:49.266Z,33.03
2018-04-22T08:11:18.128Z,28.07
2018-04-22T08:13:45.652Z,34.40
2018-04-22T08:16:13.134Z,31.50
2018-04-22T08:18:40.603Z,31.40
2018-04-22T08:21:08.077Z,31.23
2018-04-22T08:23:35.532Z,34.17
2018-04-22T08:26:03.020Z,34.27
2018-04-22T08:28:30.527Z,34.83
2018-04-22T08:30:57.940Z,32.83
2018-04-22T08:33:26.419Z,35.57
2018-04-22T08:35:53.880Z,33.03
2018-04-22T08:38:21.369Z,39.20
2018-04-22T08:40:48.837Z,47.43
2018-04-22T08:43:16.300Z,33.80
2018-04-22T08:45:43.782Z,36.07
2018-04-22T08:48:12.022Z,40.80
2018-04-22T08:50:40.052Z,39.07
2018-04-22T08:53:07.469Z,33.47
2018-04-22T08:55:34.923Z,46.80
2018-04-22T08:58:02.396Z,35.03
2018-04-22T09:00:30.624Z,37.83
2018-04-22T09:02:58.089Z,38.13
2018-04-22T09:05:25.572Z,38.57
2018-04-22T09:07:53.033Z,36.20
2018-04-22T09:10:21.270Z,33.83
2018-04-22T09:12:48.729Z,33.53
2018-04-22T09:15:16.271Z,36.93
2018-04-22T09:17:43.723Z,34.97
2018-04-22T09:20:11.204Z,35.87
2018-04-22T09:22:38.664Z,39.90
2018-04-22T09:25:06.129Z,38.53
2018-04-22T09:27:33.590Z,38.37
2018-04-22T09:30:01.048Z,37.23
2018-04-22T09:32:28.541Z,42.97
2018-04-22T09:34:57.797Z,40.30
2018-04-22T09:37:25.260Z,42.10
2018-04-22T09:39:52.736Z,47.00
2018-04-22T09:42:20.967Z,45.70
2018-04-22T09:44:48.432Z,42.23
2018-04-22T09:47:15.903Z,60.30
2018-04-22T09:49:43.468Z,51.83
2018-04-22T09:52:10.923Z,46.10
2018-04-22T09:54:38.375Z,45.33
2018-04-22T09:57:05.879Z,45.50
2018-04-22T09:59:33.328Z,49.07
2018-04-22T10:02:00.790Z,41.57
2018-04-22T10:04:29.037Z,45.40
2018-04-22T10:06:57.270Z,48.33
2018-04-22T10:09:24.729Z,48.63
2018-04-22T10:11:52.212Z,48.83
2018-04-22T10:14:19.668Z,48.43
2018-04-22T10:16:47.132Z,52.67
2018-04-22T10:19:14.601Z,55.80
2018-04-22T10:21:42.832Z,50.97
2018-04-22T10:24:10.296Z,54.63
2018-04-22T10:26:37.751Z,52.80
2018-04-22T10:29:05.761Z,55.17
2018-04-22T10:31:34.000Z,58.23
2018-04-22T10:34:01.456Z,62.23
2018-04-22T10:36:28.932Z,55.80
2018-04-22T10:38:56.392Z,55.43
2018-04-22T10:41:23.868Z,52.93
2018-04-22T10:43:52.100Z,58.57
2018-04-22T10:46:19.585Z,55.90
2018-04-22T10:48:47.047Z,55.07
2018-04-22T10:51:15.368Z,58.93
2018-04-22T10:53:42.828Z,59.93
2018-04-22T10:56:10.302Z,55.17
2018-04-22T10:58:37.771Z,63.27
2018-04-22T11:01:05.227Z,63.27
2018-04-22T11:03:32.697Z,60.83
2018-04-22T11:06:00.156Z,65.30
2018-04-22T11:08:27.637Z,63.53
2018-04-22T11:10:55.870Z,56.53
2018-04-22T11:13:23.359Z,54.17
2018-04-22T11:15:51.584Z,58.27
2018-04-22T11:18:19.052Z,53.30
2018-04-22T11:20:46.529Z,60.27
2018-04-22T11:23:14.003Z,55.33
2018-04-22T11:25:42.240Z,50.57
2018-04-22T11:28:09.716Z,44.90
2018-04-22T11:30:37.177Z,48.00
2018-04-22T11:33:04.645Z,49.80
2018-04-22T11:35:32.868Z,50.10
2018-04-22T11:38:00.339Z,49.90
2018-04-22T11:40:27.806Z,43.80
2018-04-22T11:42:55.274Z,46.10
2018-04-22T11:45:22.749Z,50.63
2018-04-22T11:47:51.017Z,45.23
2018-04-22T11:50:18.445Z,45.23
2018-04-22T11:52:45.928Z,41.10
2018-04-22T11:55:13.392Z,39.93
2018-04-22T11:57:41.619Z,46.83
2018-04-22T12:00:09.117Z,38.87
2018-04-22T12:02:37.212Z,28.30
2018-04-22T12:05:05.433Z,28.03
2018-04-22T12:07:32.912Z,39.33
2018-04-22T12:10:00.368Z,33.20
2018-04-22T12:12:27.828Z,39.67
2018-04-22T12:14:55.296Z,28.83
2018-04-22T12:17:23.523Z,31.93
2018-04-22T12:19:50.995Z,25.77
2018-04-22T12:22:18.485Z,20.30
2018-04-22T12:24:46.722Z,15.20
2018-04-22T12:27:14.176Z,17.30
2018-04-22T12:29:41.648Z,21.43
2018-04-22T12:32:09.117Z,18.23
2018-04-22T12:34:36.598Z,18.43
2018-04-22T12:37:04.852Z,18.53
2018-04-22T12:39:32.309Z,21.00
2018-04-22T12:41:59.792Z,17.13
2018-04-22T12:44:28.033Z,20.70
2018-04-22T12:46:55.493Z,19.67
2018-04-22T12:49:22.956Z,23.97
2018-04-22T12:51:50.422Z,16.27
2018-04-22T12:54:18.660Z,15.10
2018-04-22T12:56:46.108Z,16.93
2018-04-22T12:59:13.612Z,13.70
2018-04-22T13:01:41.080Z,15.43
2018-04-22T13:04:09.301Z,18.80
2018-04-22T13:06:36.788Z,19.87
2018-04-22T13:09:04.256Z,23.33
2018-04-22T13:11:32.480Z,19.60
2018-04-22T13:13:59.955Z,16.40
2018-04-22T13:16:27.437Z,16.53
2018-04-22T13:18:54.909Z,23.43
2018-04-22T13:21:23.144Z,21.90
2018-04-22T13:23:50.621Z,24.87
2018-04-22T13:26:18.084Z,21.57
2018-04-22T13:28:45.573Z,18.17
2018-04-22T13:31:13.033Z,18.37
2018-04-22T13:33:40.486Z,21.67
2018-04-22T13:36:07.956Z,18.77
2018-04-22T13:38:35.426Z,30.90
2018-04-22T13:41:02.972Z,18.73
2018-04-22T13:43:30.439Z,17.27
2018-04-22T13:45:57.897Z,17.97
2018-04-22T13:48:25.380Z,16.20
2018-04-22T13:50:52.837Z,16.13
2018-04-22T13:53:20.309Z,17.53
2018-04-22T13:55:47.769Z,14.83
2018-04-22T13:58:15.236Z,13.23
2018-04-22T14:00:43.462Z,18.10
2018-04-22T14:03:10.929Z,23.00
2018-04-22T14:05:38.396Z,20.23
2018-04-22T14:08:06.579Z,20.70
2018-04-22T14:10:34.116Z,20.80
2018-04-22T14:13:01.880Z,23.07
2018-04-22T14:15:29.336Z,25.80
2018-04-22T14:17:57.132Z,25.83
2018-04-22T14:20:26.148Z,22.13
2018-04-22T14:22:53.641Z,22.40
2018-04-22T14:25:21.141Z,23.03
2018-04-22T14:27:48.589Z,30.30
2018-04-22T14:30:16.055Z,26.53
2018-04-22T14:32:44.299Z,24.30
2018-04-22T14:35:11.770Z,31.03
2018-04-22T14:37:39.249Z,26.10
2018-04-22T14:40:07.512Z,30.40
2018-04-22T14:42:34.957Z,25.57
2018-04-22T14:45:14.408Z,21.83
2018-04-22T14:47:41.880Z,30.17
2018-04-22T14:50:10.108Z,34.93
2018-04-22T14:52:38.378Z,39.57
2018-04-22T14:55:06.537Z,44.53
2018-04-22T14:57:33.993Z,45.30
2018-04-22T15:00:01.453Z,46.03
2018-04-22T15:02:28.921Z,53.30
2018-04-22T15:04:56.405Z,41.70
2018-04-22T15:07:23.865Z,39.10
2018-04-22T15:09:51.349Z,34.67
2018-04-22T15:12:19.592Z,32.83
2018-04-22T15:14:47.054Z,28.40
2018-04-22T15:17:14.528Z,36.80
2018-04-22T15:19:42.764Z,22.93
2018-04-22T15:22:10.216Z,23.17
2018-04-22T15:24:37.697Z,24.50
2018-04-22T15:27:05.174Z,28.30
2018-04-22T15:29:33.417Z,25.60
2018-04-22T15:32:00.896Z,26.43
2018-04-22T15:34:28.364Z,31.57
2018-04-22T15:36:56.614Z,31.43
2018-04-22T15:39:25.298Z,23.20
2018-04-22T15:41:52.761Z,22.90
2018-04-22T15:44:20.243Z,27.47
2018-04-22T15:46:48.483Z,25.13
2018-04-22T15:49:15.948Z,38.93
2018-04-22T15:51:43.499Z,30.00
2018-04-22T15:54:10.935Z,38.43
2018-04-22T15:56:38.405Z,38.40
2018-04-22T15:59:05.869Z,34.33
2018-04-22T16:01:33.342Z,43.40
2018-04-22T16:04:00.848Z,40.40
2018-04-22T16:06:28.299Z,40.37
2018-04-22T16:08:55.759Z,39.47
2018-04-22T16:11:23.244Z,42.47
2018-04-22T16:13:50.704Z,47.37
2018-04-22T16:16:18.178Z,47.87
2018-04-22T16:18:45.640Z,38.70
2018-04-22T16:21:13.182Z,43.20
2018-04-22T16:23:40.600Z,37.30
2018-04-22T16:26:08.071Z,47.40
2018-04-22T16:28:35.536Z,38.57
2018-04-22T16:31:03.005Z,42.27
2018-04-22T16:33:31.452Z,36.53
2018-04-22T16:35:58.916Z,39.10
2018-04-22T16:38:26.408Z,37.60
2018-04-22T16:40:53.879Z,29.90
2018-04-22T16:43:21.335Z,18.87
2018-04-22T16:45:48.805Z,22.00
2018-04-22T16:48:17.054Z,16.13
2018-04-22T16:50:44.517Z,14.77
2018-04-22T16:53:11.996Z,13.57
2018-04-22T16:55:40.243Z,12.27
2018-04-22T16:58:07.725Z,9.97
2018-04-22T17:00:36.104Z,13.10
2018-04-22T17:03:04.329Z,10.90
2018-04-22T17:05:31.809Z,12.40
2018-04-22T17:07:59.272Z,14.40
2018-04-22T17:10:26.742Z,16.80
2018-04-22T17:12:54.974Z,12.83
2018-04-22T17:15:22.650Z,10.83
2018-04-22T17:17:50.111Z,12.03
2018-04-22T17:20:17.692Z,16.83
2018-04-22T17:22:45.911Z,13.80
2018-04-22T17:25:13.438Z,18.77
2018-04-22T17:27:41.685Z,12.77
2018-04-22T17:30:09.165Z,17.63
2018-04-22T17:32:37.473Z,18.53
2018-04-22T17:35:05.012Z,17.93
2018-04-22T17:37:33.254Z,19.70
2018-04-22T17:40:00.713Z,21.00
2018-04-22T17:42:29.104Z,18.67
2018-04-22T17:44:57.329Z,20.40
2018-04-22T17:47:24.820Z,17.10
2018-04-22T17:49:52.281Z,17.23
2018-04-22T17:52:19.794Z,13.60
2018-04-22T17:54:47.261Z,21.50
2018-04-22T17:57:15.484Z,15.63
2018-04-22T17:59:43.712Z,27.97
2018-04-22T18:02:11.184Z,19.03
2018-04-22T18:04:38.643Z,15.20
2018-04-22T18:07:06.179Z,24.63
2018-04-22T18:09:33.596Z,29.80
2018-04-22T18:12:01.830Z,29.97
2018-04-22T18:14:29.381Z,29.07
2018-04-22T18:16:57.052Z,24.87
2018-04-22T18:19:24.519Z,24.83
2018-04-22T18:21:52.001Z,25.43
2018-04-22T18:24:20.236Z,18.70
2018-04-22T18:26:47.723Z,26.63
2018-04-22T18:29:15.177Z,19.93
2018-04-22T18:31:43.420Z,25.53
2018-04-22T18:34:10.901Z,19.73
2018-04-22T18:36:38.361Z,32.00
2018-04-22T18:39:05.879Z,24.53
2018-04-22T18:41:33.348Z,23.10
2018-04-22T18:44:00.804Z,24.57
2018-04-22T18:46:29.060Z,22.50
2018-04-22T18:48:56.520Z,18.93
2018-04-22T18:51:23.982Z,27.47
2018-04-22T18:53:51.684Z,20.10
2018-04-22T18:56:19.148Z,21.33
2018-04-22T18:58:47.117Z,25.40
2018-04-22T19:01:15.356Z,22.13
2018-04-22T19:03:42.833Z,19.80
2018-04-22T19:06:10.318Z,31.30
2018-04-22T19:08:38.541Z,23.20
2018-04-22T19:11:06.034Z,22.23
2018-04-22T19:13:33.476Z,23.30
2018-04-22T19:16:00.958Z,29.23
2018-04-22T19:18:29.188Z,25.20
2018-04-22T19:20:56.641Z,27.10
2018-04-22T19:23:24.876Z,22.40
2018-04-22T19:25:53.119Z,30.53
2018-04-22T19:28:20.597Z,26.70
2018-04-22T19:30:48.836Z,29.40
2018-04-22T19:33:16.291Z,24.73
2018-04-22T19:35:43.776Z,20.90
2018-04-22T19:38:12.002Z,21.07
2018-04-22T19:40:39.457Z,27.10
2018-04-22T19:43:06.946Z,26.53
2018-04-22T19:45:34.405Z,23.10
2018-04-22T19:48:01.875Z,25.00
2018-04-22T19:50:30.154Z,28.90
2018-04-22T19:52:57.636Z,31.07
2018-04-22T19:55:25.110Z,30.67
2018-04-22T19:57:52.628Z,26.70
2018-04-22T20:00:20.868Z,27.47
2018-04-22T20:02:48.480Z,28.40
2018-04-22T20:05:16.716Z,24.30
2018-04-22T20:07:44.291Z,35.10
2018-04-22T20:10:11.812Z,23.67
2018-04-22T20:12:39.444Z,31.37
2018-04-22T20:15:06.987Z,23.30
2018-04-22T20:17:35.233Z,21.80
2018-04-22T20:20:02.716Z,22.33
2018-04-22T20:22:30.967Z,21.70
2018-04-22T20:24:58.462Z,20.67
2018-04-22T20:27:26.681Z,27.60
2018-04-22T20:29:54.139Z,14.73
2018-04-22T20:32:21.684Z,24.67
2018-04-22T20:34:49.243Z,18.93
2018-04-22T20:37:16.737Z,18.53
2018-04-22T20:39:44.208Z,22.93
2018-04-22T20:42:11.727Z,28.27
2018-04-22T20:44:39.432Z,26.10
2018-04-22T20:47:06.944Z,20.03
2018-04-22T20:49:34.412Z,20.60
2018-04-22T20:52:01.870Z,26.23
2018-04-22T20:54:29.352Z,17.53
2018-04-22T20:56:57.682Z,19.43
2018-04-22T20:59:25.200Z,22.80
2018-04-22T21:01:53.502Z,26.10
2018-04-22T21:04:20.984Z,25.93
2018-04-22T21:06:48.486Z,17.13
2018-04-22T21:09:16.743Z,16.40
2018-04-22T21:11:44.306Z,18.97
2018-04-22T21:14:12.579Z,24.10
2018-04-22T21:16:40.093Z,21.03
2018-04-22T21:19:07.554Z,19.93
2018-04-22T21:21:35.062Z,17.80
2018-04-22T21:24:03.287Z,14.73
2018-04-22T21:26:30.769Z,17.03
2018-04-22T21:28:58.247Z,21.97
2018-04-22T21:31:25.855Z,17.20
2018-04-22T21:33:53.402Z,18.57
2018-04-22T21:36:20.909Z,12.97
2018-04-22T21:38:49.187Z,19.40
2018-04-22T21:41:16.742Z,23.60
2018-04-22T21:43:44.200Z,15.10
2018-04-22T21:46:11.671Z,20.27
2018-04-22T21:48:39.892Z,20.60
2018-04-22T21:51:07.356Z,20.83
2018-04-22T21:53:34.833Z,17.37
2018-04-22T21:56:02.342Z,16.10
2018-04-22T21:58:29.755Z,14.00
2018-04-22T22:00:57.228Z,17.97
2018-04-22T22:03:25.455Z,15.77
2018-04-22T22:05:52.909Z,20.90
2018-04-22T22:08:20.371Z,20.97
2018-04-22T22:10:47.975Z,20.90
2018-04-22T22:13:16.204Z,10.90
2018-04-22T22:15:43.697Z,18.97
2018-04-22T22:18:11.149Z,13.00
2018-04-22T22:20:38.649Z,23.40
2018-04-22T22:23:06.977Z,12.90
2018-04-22T22:25:34.440Z,10.70
2018-04-22T22:28:01.906Z,17.00
2018-04-22T22:30:29.367Z,16.77
2018-04-22T22:32:56.842Z,8.87
2018-04-22T22:35:25.090Z,15.43
2018-04-22T22:37:52.542Z,9.10
2018-04-22T22:40:20.614Z,16.33
2018-04-22T22:42:48.196Z,16.17
2018-04-22T22:45:15.661Z,18.77
2018-04-22T22:47:44.911Z,11.83
2018-04-22T22:50:12.381Z,20.87
2018-04-22T22:52:39.824Z,15.23
2018-04-22T22:55:07.305Z,17.20
2018-04-22T22:57:34.751Z,12.53
2018-04-22T23:00:02.317Z,16.20
2018-04-22T23:02:29.792Z,20.43
2018-04-22T23:04:58.019Z,14.97
2018-04-22T23:07:25.485Z,15.77
2018-04-22T23:09:52.962Z,12.13
2018-04-22T23:12:20.428Z,15.43
2018-04-22T23:14:47.896Z,12.33
2018-04-22T23:17:16.149Z,14.43
2018-04-22T23:19:43.620Z,17.43
2018-04-22T23:22:11.841Z,17.90
2018-04-22T23:24:39.398Z,26.30
2018-04-22T23:27:06.852Z,13.13
2018-04-22T23:29:34.324Z,15.30
2018-04-22T23:32:01.792Z,15.37
2018-04-22T23:34:29.264Z,12.33
2018-04-22T23:36:56.756Z,30.20
2018-04-22T23:39:24.980Z,20.03
2018-04-22T23:41:52.452Z,18.33
2018-04-22T23:44:19.920Z,18.87
2018-04-22T23:46:48.289Z,17.27
2018-04-22T23:49:15.761Z,17.73
2018-04-22T23:51:44.024Z,19.90
2018-04-22T23:54:11.480Z,15.53
2018-04-22T23:56:38.945Z,17.77
2018-04-22T23:59:06.404Z,19.47
